PWSweather.com
Personal Weather Stations
Station Observations
KILMORRI1
Goose Lake, Morris, IL 60450

Goose LakeMorris, IL 60450

Lat: 41.34, Lon: -88.3

Elevation: 523

Station Type:

Latest ConditionsUpdated 9:20:05 PM CDT Monday, Mar 27, 2017
Currently Today's Max Today's Min Today's Average
Temperature 46.7°F8.2°C 55.0°F12.8°C 46.7°F8.2°C 51.1°F10.6°C
Dew Point 44.2°F6.8°C 51.8°F11.0°C 44.2°F6.8°C 48.7°F9.3°C
Winds 5.8 mph NE9.3 kmh NE 8.1 mph NE13.0 kmh NE - 2.5 mph 4.0 kmh
Wind Gusts 6.9 mph11.1 kmh 12.7 mph20.4 kmh - -
Humidity 91% 96% 86% 92%
Pressure 29.93 in1013.5 mb 29.94 in1013.9 mb 29.86 in1011.2 mb -
Precipitation - 0.01 in0.3 mm - -
Hour Temp Dew Point Humidity Winds Wind Gusts Pressure Precip Precip Rate Daily Precip Total
09:20 PM 46.7°F8.2°C 44.2°F6.8°C 91% 5.8 mph NE9.3 kmh NE 6.9 mph11.1 kmh 29.93 in1013.5 mb - 0.00 in0.0 mm 0.01 in0.3 mm
09:10 PM 46.9°F8.3°C 44.4°F6.9°C 91% 5.8 mph ENE9.3 kmh ENE 6.9 mph11.1 kmh 29.92 in1013.2 mb - 0.00 in0.0 mm 0.01 in0.3 mm
09:00 PM 47.2°F8.4°C 44.4°F6.9°C 90% 8.1 mph ENE13.0 kmh ENE 10.4 mph16.7 kmh 29.92 in1013.2 mb - 0.00 in0.0 mm 0.01 in0.3 mm
08:50 PM 47.8°F8.8°C 45.0°F7.2°C 90% 8.1 mph ENE13.0 kmh ENE 9.2 mph14.8 kmh 29.92 in1013.2 mb - 0.00 in0.0 mm 0.01 in0.3 mm
08:40 PM 48.3°F9.1°C 45.8°F7.7°C 91% 4.6 mph ENE7.4 kmh ENE 4.6 mph7.4 kmh 29.92 in1013.2 mb - 0.00 in0.0 mm 0.01 in0.3 mm
08:30 PM 48.6°F9.2°C 46.1°F7.8°C 91% 5.8 mph E9.3 kmh E 6.9 mph11.1 kmh 29.91 in1012.9 mb - 0.00 in0.0 mm 0.01 in0.3 mm
08:20 PM 48.8°F9.3°C 46.3°F7.9°C 91% 4.6 mph ENE7.4 kmh ENE 5.8 mph9.3 kmh 29.91 in1012.9 mb - 0.00 in0.0 mm 0.01 in0.3 mm
08:10 PM 49.2°F9.6°C 46.4°F8.0°C 90% 4.6 mph NE7.4 kmh NE 8.1 mph13.0 kmh 29.91 in1012.9 mb - 0.00 in0.0 mm 0.01 in0.3 mm
08:00 PM 49.6°F9.8°C 46.5°F8.1°C 89% 8.1 mph ENE13.0 kmh ENE 11.5 mph18.5 kmh 29.91 in1012.9 mb - 0.00 in0.0 mm 0.01 in0.3 mm
07:50 PM 50.1°F10.1°C 47.0°F8.3°C 89% 8.1 mph NE13.0 kmh NE 9.2 mph14.8 kmh 29.91 in1012.9 mb - 0.00 in0.0 mm 0.01 in0.3 mm
07:40 PM 50.8°F10.4°C 48.0°F8.9°C 90% 5.8 mph ENE9.3 kmh ENE 8.1 mph13.0 kmh 29.90 in1012.5 mb - 0.00 in0.0 mm 0.01 in0.3 mm
07:30 PM 51.2°F10.7°C 48.0°F8.9°C 89% 6.9 mph NE11.1 kmh NE 9.2 mph14.8 kmh 29.89 in1012.2 mb - 0.00 in0.0 mm 0.01 in0.3 mm
07:20 PM 51.5°F10.8°C 48.4°F9.1°C 89% 5.8 mph NNE9.3 kmh NNE 9.2 mph14.8 kmh 29.89 in1012.2 mb - 0.00 in0.0 mm 0.01 in0.3 mm
07:10 PM 51.7°F10.9°C 48.6°F9.2°C 89% 5.8 mph NE9.3 kmh NE 8.1 mph13.0 kmh 29.89 in1012.2 mb - 0.00 in0.0 mm 0.01 in0.3 mm
07:00 PM 51.9°F11.1°C 49.1°F9.5°C 90% 3.5 mph NE5.6 kmh NE 6.9 mph11.1 kmh 29.88 in1011.9 mb - 0.00 in0.0 mm 0.01 in0.3 mm
06:50 PM 52.0°F11.1°C 48.9°F9.4°C 89% 3.5 mph NE5.6 kmh NE 4.6 mph7.4 kmh 29.88 in1011.9 mb - 0.00 in0.0 mm 0.01 in0.3 mm
06:40 PM 52.2°F11.2°C 49.1°F9.5°C 89% 4.6 mph NE7.4 kmh NE 6.9 mph11.1 kmh 29.88 in1011.9 mb - 0.00 in0.0 mm 0.01 in0.3 mm
06:30 PM 52.4°F11.3°C 49.3°F9.6°C 89% 2.3 mph NE3.7 kmh NE 4.6 mph7.4 kmh 29.87 in1011.5 mb - 0.00 in0.0 mm 0.01 in0.3 mm
06:20 PM 52.6°F11.4°C 49.5°F9.7°C 89% 4.6 mph NE7.4 kmh NE 4.6 mph7.4 kmh 29.87 in1011.5 mb - 0.00 in0.0 mm 0.01 in0.3 mm
06:10 PM 52.8°F11.6°C 49.3°F9.6°C 88% 5.8 mph NE9.3 kmh NE 6.9 mph11.1 kmh 29.86 in1011.2 mb - 0.00 in0.0 mm 0.01 in0.3 mm
06:00 PM 52.9°F11.6°C 49.7°F9.8°C 89% 5.8 mph NNE9.3 kmh NNE 10.4 mph16.7 kmh 29.86 in1011.2 mb - 0.00 in0.0 mm 0.01 in0.3 mm
05:50 PM 53.0°F11.7°C 49.8°F9.9°C 89% 4.6 mph NE7.4 kmh NE 6.9 mph11.1 kmh 29.86 in1011.2 mb - 0.00 in0.0 mm 0.01 in0.3 mm
05:40 PM 53.2°F11.8°C 49.8°F9.9°C 88% 4.6 mph NE7.4 kmh NE 4.6 mph7.4 kmh 29.86 in1011.2 mb - 0.00 in0.0 mm 0.01 in0.3 mm
05:30 PM 53.9°F12.2°C 50.4°F10.2°C 88% 8.1 mph NE13.0 kmh NE 12.7 mph20.4 kmh 29.86 in1011.2 mb - 0.00 in0.0 mm 0.01 in0.3 mm
05:20 PM 54.7°F12.6°C 51.2°F10.7°C 88% 6.9 mph NE11.1 kmh NE 10.4 mph16.7 kmh 29.86 in1011.2 mb - 0.00 in0.0 mm 0.01 in0.3 mm
05:10 PM 54.9°F12.7°C 51.4°F10.8°C 88% 6.9 mph NNE11.1 kmh NNE 8.1 mph13.0 kmh 29.86 in1011.2 mb - 0.00 in0.0 mm 0.01 in0.3 mm
05:00 PM 54.9°F12.7°C 51.7°F10.9°C 89% 3.5 mph N5.6 kmh N 5.8 mph9.3 kmh 29.86 in1011.2 mb - 0.00 in0.0 mm 0.01 in0.3 mm
04:50 PM 55.0°F12.8°C 51.5°F10.8°C 88% 5.8 mph N9.3 kmh N 5.8 mph9.3 kmh 29.86 in1011.2 mb - 0.00 in0.0 mm 0.01 in0.3 mm
04:40 PM 54.9°F12.7°C 51.7°F10.9°C 89% 4.6 mph NNE7.4 kmh NNE 5.8 mph9.3 kmh 29.86 in1011.2 mb - 0.00 in0.0 mm 0.01 in0.3 mm
04:30 PM 54.7°F12.6°C 51.8°F11.0°C 90% 4.6 mph N7.4 kmh N 5.8 mph9.3 kmh 29.86 in1011.2 mb - 0.00 in0.0 mm 0.01 in0.3 mm
04:20 PM 54.5°F12.5°C 51.3°F10.7°C 89% 1.2 mph NNE1.9 kmh NNE 2.3 mph3.7 kmh 29.86 in1011.2 mb - 0.00 in0.0 mm 0.01 in0.3 mm
04:10 PM 54.5°F12.5°C 51.3°F10.7°C 89% Calm Calm 3.5 mph5.6 kmh 29.87 in1011.5 mb - 0.00 in0.0 mm 0.01 in0.3 mm
04:00 PM 54.5°F12.5°C 51.6°F10.9°C 90% 1.2 mph NE1.9 kmh NE 2.3 mph3.7 kmh 29.87 in1011.5 mb - 0.00 in0.0 mm 0.01 in0.3 mm
03:50 PM 54.5°F12.5°C 51.6°F10.9°C 90% Calm Calm 2.3 mph3.7 kmh 29.87 in1011.5 mb - 0.00 in0.0 mm 0.01 in0.3 mm
03:40 PM 54.5°F12.5°C 51.6°F10.9°C 90% 1.2 mph E1.9 kmh E 1.2 mph1.9 kmh 29.87 in1011.5 mb - 0.00 in0.0 mm 0.01 in0.3 mm
03:30 PM 54.6°F12.6°C 51.4°F10.8°C 89% Calm Calm 1.2 mph1.9 kmh 29.87 in1011.5 mb - 0.00 in0.0 mm 0.01 in0.3 mm
03:20 PM 54.8°F12.7°C 51.6°F10.9°C 89% 1.2 mph E1.9 kmh E 1.2 mph1.9 kmh 29.87 in1011.5 mb - 0.00 in0.0 mm 0.01 in0.3 mm
03:10 PM 54.9°F12.7°C 51.4°F10.8°C 88% Calm Calm -- 29.88 in1011.9 mb - 0.00 in0.0 mm 0.01 in0.3 mm
03:00 PM 54.9°F12.7°C 51.4°F10.8°C 88% Calm Calm -- 29.88 in1011.9 mb - 0.00 in0.0 mm 0.01 in0.3 mm
02:50 PM 54.8°F12.7°C 51.4°F10.8°C 88% Calm Calm 2.3 mph3.7 kmh 29.88 in1011.9 mb - 0.01 in0.3 mm 0.01 in0.3 mm
02:40 PM 54.9°F12.7°C 51.4°F10.8°C 88% Calm Calm -- 29.88 in1011.9 mb - 0.00 in0.0 mm 0.00 in0.0 mm
02:30 PM 54.9°F12.7°C 50.8°F10.4°C 86% Calm Calm -- 29.88 in1011.9 mb - 0.00 in0.0 mm 0.00 in0.0 mm
02:20 PM 54.6°F12.6°C 50.5°F10.3°C 86% Calm Calm -- 29.88 in1011.9 mb - 0.00 in0.0 mm 0.00 in0.0 mm
02:10 PM 54.4°F12.4°C 50.3°F10.2°C 86% Calm Calm -- 29.89 in1012.2 mb - 0.00 in0.0 mm 0.00 in0.0 mm
02:00 PM 54.5°F12.5°C 50.7°F10.4°C 87% Calm Calm 1.2 mph1.9 kmh 29.89 in1012.2 mb - 0.00 in0.0 mm 0.00 in0.0 mm
01:50 PM 54.4°F12.4°C 50.6°F10.3°C 87% Calm Calm 2.3 mph3.7 kmh 29.89 in1012.2 mb - 0.00 in0.0 mm 0.00 in0.0 mm
01:40 PM 54.3°F12.4°C 50.2°F10.1°C 86% Calm Calm -- 29.89 in1012.2 mb - 0.00 in0.0 mm 0.00 in0.0 mm
01:30 PM 53.9°F12.2°C 50.4°F10.2°C 88% Calm Calm 1.2 mph1.9 kmh 29.90 in1012.5 mb - 0.00 in0.0 mm 0.00 in0.0 mm
01:20 PM 53.8°F12.1°C 50.3°F10.2°C 88% Calm Calm -- 29.90 in1012.5 mb - 0.00 in0.0 mm 0.00 in0.0 mm
01:10 PM 53.6°F12.0°C 50.5°F10.3°C 89% Calm Calm 1.2 mph1.9 kmh 29.91 in1012.9 mb - 0.00 in0.0 mm 0.00 in0.0 mm
01:00 PM 53.6°F12.0°C 50.4°F10.2°C 89% 1.2 mph SE1.9 kmh SE 2.3 mph3.7 kmh 29.91 in1012.9 mb - 0.00 in0.0 mm 0.00 in0.0 mm
12:50 PM 53.4°F11.9°C 49.9°F9.9°C 88% 2.3 mph SE3.7 kmh SE 3.5 mph5.6 kmh 29.91 in1012.9 mb - 0.00 in0.0 mm 0.00 in0.0 mm
12:40 PM 53.3°F11.8°C 50.1°F10.1°C 89% 1.2 mph SE1.9 kmh SE 3.5 mph5.6 kmh 29.91 in1012.9 mb - 0.00 in0.0 mm 0.00 in0.0 mm
12:30 PM 53.2°F11.8°C 50.0°F10.0°C 89% 1.2 mph ESE1.9 kmh ESE 3.5 mph5.6 kmh 29.92 in1013.2 mb - 0.00 in0.0 mm 0.00 in0.0 mm
12:20 PM 53.0°F11.7°C 49.8°F9.9°C 89% 1.2 mph SE1.9 kmh SE 2.3 mph3.7 kmh 29.92 in1013.2 mb - 0.00 in0.0 mm 0.00 in0.0 mm
12:10 PM 52.8°F11.6°C 49.9°F9.9°C 90% 2.3 mph SE3.7 kmh SE 3.5 mph5.6 kmh 29.92 in1013.2 mb - 0.00 in0.0 mm 0.00 in0.0 mm
12:00 PM 52.8°F11.6°C 49.9°F9.9°C 90% 1.2 mph S1.9 kmh S 3.5 mph5.6 kmh 29.93 in1013.5 mb - 0.00 in0.0 mm 0.00 in0.0 mm
11:50 AM 52.7°F11.5°C 49.8°F9.9°C 90% 1.2 mph SE1.9 kmh SE 2.3 mph3.7 kmh 29.92 in1013.2 mb - 0.00 in0.0 mm 0.00 in0.0 mm
11:40 AM 52.3°F11.3°C 49.8°F9.9°C 91% Calm Calm 1.2 mph1.9 kmh 29.93 in1013.5 mb - 0.00 in0.0 mm 0.00 in0.0 mm
11:30 AM 52.0°F11.1°C 49.2°F9.6°C 90% Calm Calm 2.3 mph3.7 kmh 29.93 in1013.5 mb - 0.00 in0.0 mm 0.00 in0.0 mm
11:20 AM 52.0°F11.1°C 49.2°F9.6°C 90% 3.5 mph S5.6 kmh S 4.6 mph7.4 kmh 29.94 in1013.9 mb - 0.00 in0.0 mm 0.00 in0.0 mm
11:10 AM 51.8°F11.0°C 49.0°F9.4°C 90% Calm Calm -- 29.93 in1013.5 mb - 0.00 in0.0 mm 0.00 in0.0 mm
11:00 AM 51.5°F10.8°C 48.9°F9.4°C 91% 1.2 mph E1.9 kmh E 2.3 mph3.7 kmh 29.93 in1013.5 mb - 0.00 in0.0 mm 0.00 in0.0 mm
10:50 AM 51.3°F10.7°C 48.5°F9.2°C 90% Calm Calm -- 29.93 in1013.5 mb - 0.00 in0.0 mm 0.00 in0.0 mm
10:40 AM 51.2°F10.7°C 48.4°F9.1°C 90% Calm Calm -- 29.93 in1013.5 mb - 0.00 in0.0 mm 0.00 in0.0 mm
10:30 AM 51.2°F10.7°C 48.4°F9.1°C 90% Calm Calm -- 29.93 in1013.5 mb - 0.00 in0.0 mm 0.00 in0.0 mm
10:20 AM 51.2°F10.7°C 48.4°F9.1°C 90% 1.2 mph NE1.9 kmh NE 3.5 mph5.6 kmh 29.93 in1013.5 mb - 0.00 in0.0 mm 0.00 in0.0 mm
10:10 AM 51.2°F10.7°C 48.6°F9.2°C 91% 1.2 mph NE1.9 kmh NE 2.3 mph3.7 kmh 29.93 in1013.5 mb - 0.00 in0.0 mm 0.00 in0.0 mm
10:00 AM 51.0°F10.6°C 48.5°F9.2°C 91% 2.3 mph N3.7 kmh N 3.5 mph5.6 kmh 29.92 in1013.2 mb - 0.00 in0.0 mm 0.00 in0.0 mm
09:50 AM 50.9°F10.5°C 48.3°F9.1°C 91% 2.3 mph NNE3.7 kmh NNE 3.5 mph5.6 kmh 29.93 in1013.5 mb - 0.00 in0.0 mm 0.00 in0.0 mm
09:40 AM 50.7°F10.4°C 48.5°F9.2°C 92% 3.5 mph NNW5.6 kmh NNW 4.6 mph7.4 kmh 29.92 in1013.2 mb - 0.00 in0.0 mm 0.00 in0.0 mm
09:30 AM 50.6°F10.3°C 48.3°F9.1°C 92% 2.3 mph N3.7 kmh N 3.5 mph5.6 kmh 29.92 in1013.2 mb - 0.00 in0.0 mm 0.00 in0.0 mm
09:20 AM 50.4°F10.2°C 48.5°F9.2°C 93% 1.2 mph N1.9 kmh N 2.3 mph3.7 kmh 29.92 in1013.2 mb - 0.00 in0.0 mm 0.00 in0.0 mm
09:10 AM 50.1°F10.1°C 48.4°F9.1°C 94% 2.3 mph NNE3.7 kmh NNE 3.5 mph5.6 kmh 29.92 in1013.2 mb - 0.00 in0.0 mm 0.00 in0.0 mm
09:00 AM 49.8°F9.9°C 48.1°F8.9°C 94% 1.2 mph NW1.9 kmh NW 2.3 mph3.7 kmh 29.92 in1013.2 mb - 0.00 in0.0 mm 0.00 in0.0 mm
08:50 AM 49.6°F9.8°C 47.9°F8.8°C 94% Calm Calm -- 29.92 in1013.2 mb - 0.00 in0.0 mm 0.00 in0.0 mm
08:40 AM 49.4°F9.7°C 48.0°F8.9°C 95% Calm Calm -- 29.92 in1013.2 mb - 0.00 in0.0 mm 0.00 in0.0 mm
08:30 AM 49.3°F9.6°C 47.9°F8.8°C 95% Calm Calm -- 29.92 in1013.2 mb - 0.00 in0.0 mm 0.00 in0.0 mm
08:20 AM 49.2°F9.6°C 47.8°F8.8°C 95% Calm Calm -- 29.92 in1013.2 mb - 0.00 in0.0 mm 0.00 in0.0 mm
08:10 AM 49.0°F9.4°C 47.3°F8.5°C 94% Calm Calm -- 29.92 in1013.2 mb - 0.00 in0.0 mm 0.00 in0.0 mm
08:00 AM 49.0°F9.4°C 47.3°F8.5°C 94% Calm Calm -- 29.92 in1013.2 mb - 0.00 in0.0 mm 0.00 in0.0 mm
07:50 AM 48.9°F9.4°C 47.2°F8.4°C 94% Calm Calm -- 29.92 in1013.2 mb - 0.00 in0.0 mm 0.00 in0.0 mm
07:40 AM 48.8°F9.3°C 47.2°F8.4°C 94% Calm Calm -- 29.92 in1013.2 mb - 0.00 in0.0 mm 0.00 in0.0 mm
07:30 AM 48.8°F9.3°C 47.2°F8.4°C 94% Calm Calm -- 29.91 in1012.9 mb - 0.00 in0.0 mm 0.00 in0.0 mm
07:20 AM 48.7°F9.3°C 47.1°F8.4°C 94% Calm Calm -- 29.91 in1012.9 mb - 0.00 in0.0 mm 0.00 in0.0 mm
07:10 AM 48.7°F9.3°C 47.1°F8.4°C 94% Calm Calm -- 29.92 in1013.2 mb - 0.00 in0.0 mm 0.00 in0.0 mm
07:00 AM 48.7°F9.3°C 47.1°F8.4°C 94% Calm Calm -- 29.92 in1013.2 mb - 0.00 in0.0 mm 0.00 in0.0 mm
06:50 AM 48.8°F9.3°C 47.1°F8.4°C 94% 1.2 mph SW1.9 kmh SW 2.3 mph3.7 kmh 29.92 in1013.2 mb - 0.00 in0.0 mm 0.00 in0.0 mm
06:40 AM 48.8°F9.3°C 47.2°F8.4°C 94% 2.3 mph SW3.7 kmh SW 3.5 mph5.6 kmh 29.91 in1012.9 mb - 0.00 in0.0 mm 0.00 in0.0 mm
06:30 AM 48.8°F9.3°C 47.2°F8.4°C 94% Calm Calm -- 29.91 in1012.9 mb - 0.00 in0.0 mm 0.00 in0.0 mm
06:20 AM 48.8°F9.3°C 47.2°F8.4°C 94% 1.2 mph SW1.9 kmh SW 4.6 mph7.4 kmh 29.91 in1012.9 mb - 0.00 in0.0 mm 0.00 in0.0 mm
06:10 AM 48.8°F9.3°C 47.2°F8.4°C 94% 1.2 mph SW1.9 kmh SW 2.3 mph3.7 kmh 29.91 in1012.9 mb - 0.00 in0.0 mm 0.00 in0.0 mm
06:00 AM 48.8°F9.3°C 47.2°F8.4°C 94% Calm Calm -- 29.90 in1012.5 mb - 0.00 in0.0 mm 0.00 in0.0 mm
05:50 AM 48.8°F9.3°C 47.2°F8.4°C 94% 2.3 mph SW3.7 kmh SW 3.5 mph5.6 kmh 29.89 in1012.2 mb - 0.00 in0.0 mm 0.00 in0.0 mm
05:40 AM 48.8°F9.3°C 47.2°F8.4°C 94% 2.3 mph WSW3.7 kmh WSW 3.5 mph5.6 kmh 29.89 in1012.2 mb - 0.00 in0.0 mm 0.00 in0.0 mm
05:30 AM 48.8°F9.3°C 47.2°F8.4°C 94% 2.3 mph SW3.7 kmh SW 3.5 mph5.6 kmh 29.89 in1012.2 mb - 0.00 in0.0 mm 0.00 in0.0 mm
05:20 AM 48.9°F9.4°C 47.5°F8.6°C 95% 2.3 mph SW3.7 kmh SW 3.5 mph5.6 kmh 29.90 in1012.5 mb - 0.00 in0.0 mm 0.00 in0.0 mm
05:10 AM 48.9°F9.4°C 47.5°F8.6°C 95% 1.2 mph WSW1.9 kmh WSW 2.3 mph3.7 kmh 29.89 in1012.2 mb - 0.00 in0.0 mm 0.00 in0.0 mm
05:00 AM 49.0°F9.4°C 47.6°F8.7°C 95% 3.5 mph WSW5.6 kmh WSW 3.5 mph5.6 kmh 29.89 in1012.2 mb - 0.00 in0.0 mm 0.00 in0.0 mm
04:50 AM 49.0°F9.4°C 47.7°F8.7°C 95% 1.2 mph WSW1.9 kmh WSW 3.5 mph5.6 kmh 29.89 in1012.2 mb - 0.00 in0.0 mm 0.00 in0.0 mm
04:40 AM 49.1°F9.5°C 47.7°F8.7°C 95% Calm Calm 2.3 mph3.7 kmh 29.89 in1012.2 mb - 0.00 in0.0 mm 0.00 in0.0 mm
04:30 AM 49.1°F9.5°C 47.7°F8.7°C 95% 2.3 mph W3.7 kmh W 3.5 mph5.6 kmh 29.90 in1012.5 mb - 0.00 in0.0 mm 0.00 in0.0 mm
04:20 AM 49.2°F9.6°C 48.1°F8.9°C 96% 2.3 mph WSW3.7 kmh WSW 8.1 mph13.0 kmh 29.90 in1012.5 mb - 0.00 in0.0 mm 0.00 in0.0 mm
04:10 AM 49.4°F9.7°C 48.3°F9.1°C 96% 3.5 mph SW5.6 kmh SW 4.6 mph7.4 kmh 29.90 in1012.5 mb - 0.00 in0.0 mm 0.00 in0.0 mm
04:00 AM 49.4°F9.7°C 48.3°F9.1°C 96% Calm Calm 2.3 mph3.7 kmh 29.90 in1012.5 mb - 0.00 in0.0 mm 0.00 in0.0 mm
03:50 AM 49.4°F9.7°C 48.3°F9.1°C 96% 3.5 mph WSW5.6 kmh WSW 4.6 mph7.4 kmh 29.90 in1012.5 mb - 0.00 in0.0 mm 0.00 in0.0 mm
03:40 AM 49.4°F9.7°C 48.3°F9.1°C 96% 2.3 mph WSW3.7 kmh WSW 4.6 mph7.4 kmh 29.90 in1012.5 mb - 0.00 in0.0 mm 0.00 in0.0 mm
03:30 AM 49.5°F9.7°C 48.4°F9.1°C 96% 3.5 mph WSW5.6 kmh WSW 3.5 mph5.6 kmh 29.90 in1012.5 mb - 0.00 in0.0 mm 0.00 in0.0 mm
03:20 AM 49.6°F9.8°C 48.2°F9.0°C 95% 2.3 mph WSW3.7 kmh WSW 4.6 mph7.4 kmh 29.90 in1012.5 mb - 0.00 in0.0 mm 0.00 in0.0 mm
03:10 AM 49.6°F9.8°C 48.2°F9.0°C 95% 1.2 mph W1.9 kmh W 3.5 mph5.6 kmh 29.90 in1012.5 mb - 0.00 in0.0 mm 0.00 in0.0 mm
03:00 AM 49.7°F9.8°C 48.3°F9.1°C 95% 3.5 mph SW5.6 kmh SW 6.9 mph11.1 kmh 29.90 in1012.5 mb - 0.00 in0.0 mm 0.00 in0.0 mm
02:50 AM 49.7°F9.8°C 48.3°F9.1°C 95% 2.3 mph WSW3.7 kmh WSW 4.6 mph7.4 kmh 29.90 in1012.5 mb - 0.00 in0.0 mm 0.00 in0.0 mm
02:40 AM 49.7°F9.8°C 48.3°F9.1°C 95% 3.5 mph WSW5.6 kmh WSW 3.5 mph5.6 kmh 29.90 in1012.5 mb - 0.00 in0.0 mm 0.00 in0.0 mm
02:30 AM 49.8°F9.9°C 48.4°F9.1°C 95% 3.5 mph WSW5.6 kmh WSW 6.9 mph11.1 kmh 29.90 in1012.5 mb - 0.00 in0.0 mm 0.00 in0.0 mm
02:20 AM 49.9°F9.9°C 48.5°F9.2°C 95% 3.5 mph W5.6 kmh W 4.6 mph7.4 kmh 29.90 in1012.5 mb - 0.00 in0.0 mm 0.00 in0.0 mm
02:10 AM 49.9°F9.9°C 48.5°F9.2°C 95% 3.5 mph W5.6 kmh W 5.8 mph9.3 kmh 29.90 in1012.5 mb - 0.00 in0.0 mm 0.00 in0.0 mm
02:00 AM 50.0°F10.0°C 48.3°F9.1°C 94% 5.8 mph WSW9.3 kmh WSW 8.1 mph13.0 kmh 29.90 in1012.5 mb - 0.00 in0.0 mm 0.00 in0.0 mm
01:50 AM 50.1°F10.1°C 48.4°F9.1°C 94% 4.6 mph WSW7.4 kmh WSW 6.9 mph11.1 kmh 29.90 in1012.5 mb - 0.00 in0.0 mm 0.00 in0.0 mm
01:40 AM 50.1°F10.1°C 48.4°F9.1°C 94% 4.6 mph WSW7.4 kmh WSW 5.8 mph9.3 kmh 29.90 in1012.5 mb - 0.00 in0.0 mm 0.00 in0.0 mm
01:30 AM 50.1°F10.1°C 48.4°F9.1°C 94% 4.6 mph WSW7.4 kmh WSW 9.2 mph14.8 kmh 29.89 in1012.2 mb - 0.00 in0.0 mm 0.00 in0.0 mm
01:20 AM 50.2°F10.1°C 48.5°F9.2°C 94% 3.5 mph WSW5.6 kmh WSW 3.5 mph5.6 kmh 29.89 in1012.2 mb - 0.00 in0.0 mm 0.00 in0.0 mm
01:10 AM 50.2°F10.1°C 48.5°F9.2°C 94% 3.5 mph SW5.6 kmh SW 5.8 mph9.3 kmh 29.89 in1012.2 mb - 0.00 in0.0 mm 0.00 in0.0 mm
01:00 AM 50.2°F10.1°C 48.5°F9.2°C 94% 5.8 mph WSW9.3 kmh WSW 6.9 mph11.1 kmh 29.89 in1012.2 mb - 0.00 in0.0 mm 0.00 in0.0 mm
12:50 AM 50.2°F10.1°C 48.5°F9.2°C 94% 4.6 mph WSW7.4 kmh WSW 4.6 mph7.4 kmh 29.89 in1012.2 mb - 0.00 in0.0 mm 0.00 in0.0 mm
12:40 AM 50.2°F10.1°C 48.5°F9.2°C 94% 5.8 mph W9.3 kmh W 6.9 mph11.1 kmh 29.89 in1012.2 mb - 0.00 in0.0 mm 0.00 in0.0 mm
12:30 AM 50.1°F10.1°C 48.4°F9.1°C 94% 4.6 mph WSW7.4 kmh WSW 5.8 mph9.3 kmh 29.89 in1012.2 mb - 0.00 in0.0 mm 0.00 in0.0 mm
12:20 AM 50.1°F10.1°C 48.4°F9.1°C 94% 2.3 mph WSW3.7 kmh WSW 6.9 mph11.1 kmh 29.89 in1012.2 mb - 0.00 in0.0 mm 0.00 in0.0 mm
12:10 AM 50.1°F10.1°C 48.7°F9.3°C 95% 4.6 mph WSW7.4 kmh WSW 5.8 mph9.3 kmh 29.89 in1012.2 mb - 0.00 in0.0 mm 0.00 in0.0 mm
12:00 AM 50.1°F10.1°C 48.7°F9.3°C 95% 4.6 mph WSW7.4 kmh WSW 5.8 mph9.3 kmh 29.89 in1012.2 mb - 0.00 in0.0 mm 0.00 in0.0 mm